Flight Track Log - Related Links

Times and Time Zones

All times are in EDT time to prevent confusion due to time zone crossing. See the USC105 flight status page for this flight to view local times or setup timezone preferences in your user account.


Time Position Orientation Groundspeed Altitude Reporting Facility
EDT Latitude Longitude Course Direction KTS MPH feet Rate Location/Type
Thu 10:31:13 PM 40.9278 -82.1386 246° West 185 213 6,900  Level Cleveland Center
Thu 10:32:13 PM 40.9783 -82.1014 29° Northeast 188 216 6,900 -17 Level Cleveland Center
Thu 10:34:00 PM 41.0373 -82.1666 320° Northwest  Level Estimated
Thu 10:36:00 PM 41.4118 -81.9813 246° West  Level FlightAware Approximate
Thu 10:41:00 PM 41.2683 -82.4235 320° Northwest  Level Estimated
Thu 10:42:00 PM 41.3013 -82.4604 320° Northwest  Level Estimated
Thu 10:43:00 PM 41.3343 -82.4973 320° Northwest  Level Estimated
Thu 10:44:00 PM 41.3672 -82.5342 320° Northwest  Level Estimated
Thu 10:45:00 PM 41.4001 -82.5712 320° Northwest  Level Estimated
Thu 10:46:00 PM 41.4330 -82.6082 320° Northwest  Level Estimated
Thu 10:47:00 PM 41.4659 -82.6452 320° Northwest  Level Estimated
Thu 10:48:00 PM 41.4988 -82.6823 320° Northwest  Level Estimated
Thu 10:49:00 PM 41.5317 -82.7194 320° Northwest  Level Estimated
Thu 10:50:00 PM 41.5646 -82.7566 320° Northwest  Level Estimated
Thu 10:51:00 PM 41.5974 -82.7938 320° Northwest  Level Estimated
Thu 10:52:00 PM 41.6303 -82.8310 320° Northwest  Level Estimated
Thu 10:53:00 PM 41.6631 -82.8683 320° Northwest  Level Estimated
Thu 10:54:00 PM 41.6959 -82.9056 320° Northwest  Level Estimated
Thu 10:55:00 PM 41.7287 -82.9429 320° Northwest  Level Estimated
Thu 10:56:00 PM 41.7615 -82.9803 320° Northwest  Level Estimated
Thu 10:57:00 PM 41.7943 -83.0177 320° Northwest  Level Estimated
Thu 10:58:00 PM 41.8271 -83.0552 320° Northwest  Level Estimated
Thu 10:59:00 PM 41.8598 -83.0927 320° Northwest  Level Estimated
Thu 11:00:00 PM 41.8926 -83.1302 320° Northwest  Level Estimated
Thu 11:01:00 PM 41.9253 -83.1678 320° Northwest  Level Estimated
Thu 11:02:00 PM 41.9580 -83.2054 319° Northwest  Level Estimated
Thu 11:03:00 PM 41.9907 -83.2431 319° Northwest  Level Estimated
Thu 11:04:00 PM 42.0234 -83.2808 319° Northwest  Level Estimated
Thu 11:05:00 PM 42.0561 -83.3185 319° Northwest  Level Estimated
Thu 11:06:00 PM 42.0888 -83.3563 319° Northwest  Level Estimated
Thu 11:07:00 PM 42.1214 -83.3941 319° Northwest  Level Estimated
Thu 11:08:00 PM 42.1541 -83.4319 319° Northwest  Level Estimated
Thu 11:09:00 PM 42.1867 -83.4698 319° Northwest  Level Estimated
Thu 11:10:00 PM 42.2193 -83.5077 319° Northwest  Level Estimated
Thu 11:11:00 PM 42.2393 -83.5310 319° Northwest  Level Estimated
Thu 11:12:00 PM 42.2393 -83.5310 43° Northeast  Level Estimated
Thu 11:13:00 PM 42.2393 -83.5310 43° Northeast  Level Estimated
Thu 11:14:00 PM 42.2393 -83.5310 43° Northeast  Level Estimated
Thu 11:15:00 PM 42.2393 -83.5310 43° Northeast  Level Estimated
Thu 11:16:00 PM 42.2393 -83.5310 43° Northeast  Level Estimated
Thu 11:17:00 PM 42.2393 -83.5310 43° Northeast  Level Estimated
Thu 11:18:00 PM 42.2393 -83.5310 43° Northeast  Level Estimated
Thu 11:19:00 PM 42.2393 -83.5310 43° Northeast  Level Estimated
Thu 11:20:00 PM 42.2393 -83.5310 43° Northeast  Level Estimated
Thu 11:21:00 PM 42.2393 -83.5310 43° Northeast  Level Estimated
Thu 11:22:00 PM 42.2393 -83.5310 43° Northeast  Level Estimated
Thu 11:23:00 PM 42.2393 -83.5310 43° Northeast  Level Estimated
Thu 11:24:00 PM 42.2393 -83.5310 43° Northeast  Level Estimated
Thu 11:25:00 PM 42.2393 -83.5310 43° Northeast  Level Estimated
Thu 11:26:00 PM 42.2393 -83.5310 43° Northeast  Level Estimated
Thu 11:27:00 PM 42.2393 -83.5310 43° Northeast  Level Estimated
Thu 11:28:00 PM 42.2393 -83.5310 43° Northeast  Level Estimated
Thu 11:29:00 PM 42.2393 -83.5310 43° Northeast  Level Estimated
Thu 11:29:06 PM 41.9114 -82.6925 43° Northeast 173 199 5,900  Level Cleveland Center
Thu 11:30:00 PM 42.2393 -83.5310 43° Northeast  Level Estimated
Thu 11:30:06 PM 41.9544 -82.7303 327° Northwest 181 208 5,900  Level Cleveland Center
Thu 11:31:00 PM 42.2393 -83.5310 43° Northeast  Level Estimated
Thu 11:31:07 PM 41.9978 -82.7597 333° Northwest 178 205 5,900  Level Cleveland Center
Thu 11:32:00 PM 42.2393 -83.5310 43° Northeast  Level Estimated
Thu 11:32:01 PM 42.0344 -82.7944 325° Northwest 176 203 5,900  Level Cleveland Center
Thu 11:33:00 PM 42.2393 -83.5310 43° Northeast  Level Estimated
Thu 11:33:14 PM 42.0836 -82.8381 327° Northwest 178 205 5,900  Level Cleveland Center
Thu 11:34:00 PM 42.2393 -83.5310 43° Northeast  Level Estimated
Thu 11:34:15 PM 42.1267 -82.8733 329° Northwest 174 200 5,900  Level Cleveland Center
Thu 11:35:09 PM 42.1636 -82.9056 327° Northwest 176 203 5,900  Level Cleveland Center
Thu 11:36:10 PM 42.2044 -82.9433 326° Northwest 174 200 5,900 -295 Level Cleveland Center
Thu 11:37:11 PM 42.2369 -82.9950 310° West 186 214 5,300 -496 Descending Cleveland Center
Thu 11:38:11 PM 42.2647 -83.0578 301° West 193 222 4,900 -347 Descending Cleveland Center
Thu 11:39:12 PM 42.2947 -83.1125 307° West 183 211 4,600 -443 Descending Cleveland Center
Thu 11:40:13 PM 42.3269 -83.1725 306° West 192 221 4,000 -709 Descending Cleveland Center
Thu 11:41:19 PM 42.3292 -83.2542 272° West 191 220 3,100 -541 Descending Cleveland Center
Thu 11:42:26 PM 42.3336 -83.3275 275° West 174 200 2,800 -142 Descending Cleveland Center
Thu 11:43:26 PM 42.3322 -83.3864 268° West 167 192 2,800 -99 Level Cleveland Center
Thu 11:44:27 PM 42.3039 -83.4356 232° Southwest 162 186 2,600 -492 Descending Cleveland Center
Thu 11:45:28 PM 42.2778 -83.4767 229° Southwest 129 148 1,800 -793 Descending Cleveland Center
Thu 11:46:28 PM 42.2542 -83.5092 226° Southwest 104 120 1,000 -800 Descending Cleveland Center
Thu 11:48:00 PM 42.2333 -83.5167 230° Southwest  Level FlightAware Approximate

Login

Don't have an account? Register now (free) for customized features, flight alerts, and more!